sensor_id;sensor_type;location;lat;lon;timestamp;P1;durP1;ratioP1;P2;durP2;ratioP2
56401;SDS011;42299;35.160;26.100;2022-07-11T00:01:07;11.23;;;4.97;;
56401;SDS011;42299;35.160;26.100;2022-07-11T00:02:30;8.77;;;3.42;;
56401;SDS011;42299;35.160;26.100;2022-07-11T00:03:51;10.85;;;3.78;;
56401;SDS011;42299;35.160;26.100;2022-07-11T00:05:14;12.55;;;3.83;;
56401;SDS011;42299;35.160;26.100;2022-07-11T00:06:36;7.38;;;3.70;;
56401;SDS011;42299;35.160;26.100;2022-07-11T00:07:58;9.55;;;4.00;;
56401;SDS011;42299;35.160;26.100;2022-07-11T00:09:20;10.15;;;4.05;;
56401;SDS011;42299;35.160;26.100;2022-07-11T00:10:41;9.60;;;4.00;;
56401;SDS011;42299;35.160;26.100;2022-07-11T00:12:04;8.32;;;3.83;;
56401;SDS011;42299;35.160;26.100;2022-07-11T00:13:27;9.32;;;3.40;;
56401;SDS011;42299;35.160;26.100;2022-07-11T00:14:49;7.57;;;3.78;;
56401;SDS011;42299;35.160;26.100;2022-07-11T00:16:13;8.13;;;3.80;;
56401;SDS011;42299;35.160;26.100;2022-07-11T00:17:35;8.15;;;4.43;;
56401;SDS011;42299;35.160;26.100;2022-07-11T00:18:58;8.38;;;3.42;;
56401;SDS011;42299;35.160;26.100;2022-07-11T00:20:19;10.10;;;3.83;;
56401;SDS011;42299;35.160;26.100;2022-07-11T00:21:41;9.57;;;4.22;;
56401;SDS011;42299;35.160;26.100;2022-07-11T00:23:03;8.00;;;3.70;;
56401;SDS011;42299;35.160;26.100;2022-07-11T00:24:25;8.70;;;4.78;;
56401;SDS011;42299;35.160;26.100;2022-07-11T00:25:48;9.98;;;3.70;;
56401;SDS011;42299;35.160;26.100;2022-07-11T00:27:10;9.50;;;4.10;;
56401;SDS011;42299;35.160;26.100;2022-07-11T00:28:34;8.70;;;3.70;;
56401;SDS011;42299;35.160;26.100;2022-07-11T00:29:55;6.45;;;3.55;;
56401;SDS011;42299;35.160;26.100;2022-07-11T00:31:19;8.65;;;3.78;;
56401;SDS011;42299;35.160;26.100;2022-07-11T00:32:42;9.68;;;3.42;;
56401;SDS011;42299;35.160;26.100;2022-07-11T00:34:04;8.35;;;4.03;;
56401;SDS011;42299;35.160;26.100;2022-07-11T00:35:26;6.38;;;3.72;;
56401;SDS011;42299;35.160;26.100;2022-07-11T00:36:48;7.65;;;3.53;;
56401;SDS011;42299;35.160;26.100;2022-07-11T00:38:11;8.50;;;3.75;;
56401;SDS011;42299;35.160;26.100;2022-07-11T00:39:32;9.95;;;4.07;;
56401;SDS011;42299;35.160;26.100;2022-07-11T00:40:54;9.25;;;3.97;;
56401;SDS011;42299;35.160;26.100;2022-07-11T00:42:16;7.82;;;4.35;;
56401;SDS011;42299;35.160;26.100;2022-07-11T00:43:39;8.13;;;3.60;;
56401;SDS011;42299;35.160;26.100;2022-07-11T00:45:01;11.20;;;3.78;;
56401;SDS011;42299;35.160;26.100;2022-07-11T00:46:25;9.73;;;3.47;;
56401;SDS011;42299;35.160;26.100;2022-07-11T00:47:47;7.65;;;3.47;;
56401;SDS011;42299;35.160;26.100;2022-07-11T00:49:10;5.95;;;3.80;;
56401;SDS011;42299;35.160;26.100;2022-07-11T00:50:31;6.85;;;3.53;;
56401;SDS011;42299;35.160;26.100;2022-07-11T00:51:54;6.03;;;3.58;;
56401;SDS011;42299;35.160;26.100;2022-07-11T00:53:16;7.57;;;3.70;;
56401;SDS011;42299;35.160;26.100;2022-07-11T00:54:39;8.77;;;3.80;;
56401;SDS011;42299;35.160;26.100;2022-07-11T00:56:02;7.57;;;3.53;;
56401;SDS011;42299;35.160;26.100;2022-07-11T00:58:46;8.25;;;3.88;;
56401;SDS011;42299;35.160;26.100;2022-07-11T01:00:08;8.65;;;3.75;;
56401;SDS011;42299;35.160;26.100;2022-07-11T01:01:34;8.70;;;3.85;;
56401;SDS011;42299;35.160;26.100;2022-07-11T01:02:58;8.63;;;3.80;;
56401;SDS011;42299;35.160;26.100;2022-07-11T01:04:21;10.10;;;3.90;;
56401;SDS011;42299;35.160;26.100;2022-07-11T01:05:43;8.40;;;3.75;;
56401;SDS011;42299;35.160;26.100;2022-07-11T01:07:05;4.78;;;2.85;;
56401;SDS011;42299;35.160;26.100;2022-07-11T01:08:27;7.13;;;3.25;;
56401;SDS011;42299;35.160;26.100;2022-07-11T01:09:52;8.23;;;3.78;;
56401;SDS011;42299;35.160;26.100;2022-07-11T01:11:14;9.35;;;4.07;;
56401;SDS011;42299;35.160;26.100;2022-07-11T01:12:36;7.55;;;3.78;;
56401;SDS011;42299;35.160;26.100;2022-07-11T01:13:59;7.20;;;3.70;;
56401;SDS011;42299;35.160;26.100;2022-07-11T01:15:21;10.48;;;3.65;;
56401;SDS011;42299;35.160;26.100;2022-07-11T01:16:44;9.63;;;3.63;;
56401;SDS011;42299;35.160;26.100;2022-07-11T01:18:07;5.60;;;3.38;;
56401;SDS011;42299;35.160;26.100;2022-07-11T01:19:28;10.85;;;3.47;;
56401;SDS011;42299;35.160;26.100;2022-07-11T01:20:50;8.82;;;3.45;;
56401;SDS011;42299;35.160;26.100;2022-07-11T01:22:13;7.63;;;3.22;;
56401;SDS011;42299;35.160;26.100;2022-07-11T01:23:37;7.05;;;3.50;;
56401;SDS011;42299;35.160;26.100;2022-07-11T01:25:00;8.00;;;3.53;;
56401;SDS011;42299;35.160;26.100;2022-07-11T01:26:23;6.30;;;3.53;;
56401;SDS011;42299;35.160;26.100;2022-07-11T01:27:45;5.55;;;3.17;;
56401;SDS011;42299;35.160;26.100;2022-07-11T01:29:09;7.90;;;3.97;;
56401;SDS011;42299;35.160;26.100;2022-07-11T01:30:32;5.93;;;3.42;;
56401;SDS011;42299;35.160;26.100;2022-07-11T01:31:54;8.63;;;4.18;;
56401;SDS011;42299;35.160;26.100;2022-07-11T01:33:16;7.57;;;3.90;;
56401;SDS011;42299;35.160;26.100;2022-07-11T01:34:38;8.50;;;4.32;;
56401;SDS011;42299;35.160;26.100;2022-07-11T01:36:00;10.18;;;3.65;;
56401;SDS011;42299;35.160;26.100;2022-07-11T01:37:22;7.65;;;3.38;;
56401;SDS011;42299;35.160;26.100;2022-07-11T01:38:46;7.50;;;3.88;;
56401;SDS011;42299;35.160;26.100;2022-07-11T01:40:08;10.32;;;3.88;;
56401;SDS011;42299;35.160;26.100;2022-07-11T01:41:31;6.78;;;3.63;;
56401;SDS011;42299;35.160;26.100;2022-07-11T01:42:54;10.70;;;3.78;;
56401;SDS011;42299;35.160;26.100;2022-07-11T01:44:15;7.13;;;3.58;;
56401;SDS011;42299;35.160;26.100;2022-07-11T01:45:38;8.15;;;3.42;;
56401;SDS011;42299;35.160;26.100;2022-07-11T01:47:00;8.95;;;3.60;;
56401;SDS011;42299;35.160;26.100;2022-07-11T01:48:22;7.63;;;3.92;;
56401;SDS011;42299;35.160;26.100;2022-07-11T01:49:44;8.52;;;3.50;;
56401;SDS011;42299;35.160;26.100;2022-07-11T01:51:06;6.43;;;3.53;;
56401;SDS011;42299;35.160;26.100;2022-07-11T01:52:29;8.02;;;3.45;;
56401;SDS011;42299;35.160;26.100;2022-07-11T01:53:51;6.55;;;3.33;;
56401;SDS011;42299;35.160;26.100;2022-07-11T01:55:15;6.45;;;3.30;;
56401;SDS011;42299;35.160;26.100;2022-07-11T01:56:37;8.07;;;3.58;;
56401;SDS011;42299;35.160;26.100;2022-07-11T01:57:59;7.80;;;3.42;;
56401;SDS011;42299;35.160;26.100;2022-07-11T01:59:21;6.80;;;3.03;;
56401;SDS011;42299;35.160;26.100;2022-07-11T02:00:43;8.00;;;3.42;;
56401;SDS011;42299;35.160;26.100;2022-07-11T02:02:06;9.38;;;3.25;;
56401;SDS011;42299;35.160;26.100;2022-07-11T02:03:27;8.40;;;3.33;;
56401;SDS011;42299;35.160;26.100;2022-07-11T02:04:50;11.82;;;3.72;;
56401;SDS011;42299;35.160;26.100;2022-07-11T02:06:11;8.07;;;3.75;;
56401;SDS011;42299;35.160;26.100;2022-07-11T02:07:34;5.82;;;3.30;;
56401;SDS011;42299;35.160;26.100;2022-07-11T02:09:15;6.80;;;3.55;;
56401;SDS011;42299;35.160;26.100;2022-07-11T02:10:37;5.97;;;3.75;;
56401;SDS011;42299;35.160;26.100;2022-07-11T02:12:00;9.95;;;3.78;;
56401;SDS011;42299;35.160;26.100;2022-07-11T02:13:22;7.30;;;3.50;;
56401;SDS011;42299;35.160;26.100;2022-07-11T02:14:44;5.72;;;3.30;;
56401;SDS011;42299;35.160;26.100;2022-07-11T02:16:06;5.53;;;3.70;;
56401;SDS011;42299;35.160;26.100;2022-07-11T02:17:28;5.15;;;3.40;;
56401;SDS011;42299;35.160;26.100;2022-07-11T02:18:50;7.35;;;3.38;;
56401;SDS011;42299;35.160;26.100;2022-07-11T02:20:13;11.75;;;3.70;;
56401;SDS011;42299;35.160;26.100;2022-07-11T02:21:35;8.32;;;3.40;;
56401;SDS011;42299;35.160;26.100;2022-07-11T02:22:57;6.80;;;3.20;;
56401;SDS011;42299;35.160;26.100;2022-07-11T02:24:20;5.07;;;2.80;;
56401;SDS011;42299;35.160;26.100;2022-07-11T02:25:43;7.15;;;3.33;;
56401;SDS011;42299;35.160;26.100;2022-07-11T02:27:06;6.53;;;3.03;;
56401;SDS011;42299;35.160;26.100;2022-07-11T02:28:27;7.60;;;3.47;;
56401;SDS011;42299;35.160;26.100;2022-07-11T02:29:50;5.80;;;3.42;;
56401;SDS011;42299;35.160;26.100;2022-07-11T02:31:12;6.88;;;3.50;;
56401;SDS011;42299;35.160;26.100;2022-07-11T02:32:34;8.50;;;3.83;;
56401;SDS011;42299;35.160;26.100;2022-07-11T02:33:56;8.52;;;3.53;;
56401;SDS011;42299;35.160;26.100;2022-07-11T02:35:18;5.57;;;3.25;;
56401;SDS011;42299;35.160;26.100;2022-07-11T02:38:02;6.72;;;3.65;;
56401;SDS011;42299;35.160;26.100;2022-07-11T02:39:26;7.90;;;3.28;;
56401;SDS011;42299;35.160;26.100;2022-07-11T02:40:48;7.20;;;3.38;;
56401;SDS011;42299;35.160;26.100;2022-07-11T02:42:10;5.82;;;3.30;;
56401;SDS011;42299;35.160;26.100;2022-07-11T02:43:32;9.25;;;3.53;;
56401;SDS011;42299;35.160;26.100;2022-07-11T02:44:54;5.63;;;3.38;;
56401;SDS011;42299;35.160;26.100;2022-07-11T02:46:16;7.00;;;3.40;;
56401;SDS011;42299;35.160;26.100;2022-07-11T02:47:38;9.55;;;3.75;;
56401;SDS011;42299;35.160;26.100;2022-07-11T02:49:00;6.75;;;3.50;;
56401;SDS011;42299;35.160;26.100;2022-07-11T02:50:22;7.13;;;3.22;;
56401;SDS011;42299;35.160;26.100;2022-07-11T02:51:44;9.23;;;4.00;;
56401;SDS011;42299;35.160;26.100;2022-07-11T02:53:07;8.57;;;3.53;;
56401;SDS011;42299;35.160;26.100;2022-07-11T02:54:29;9.30;;;3.50;;
56401;SDS011;42299;35.160;26.100;2022-07-11T02:55:52;7.03;;;3.78;;
56401;SDS011;42299;35.160;26.100;2022-07-11T02:57:15;5.65;;;3.70;;
56401;SDS011;42299;35.160;26.100;2022-07-11T02:59:59;5.50;;;3.42;;
56401;SDS011;42299;35.160;26.100;2022-07-11T03:01:20;7.65;;;4.03;;
56401;SDS011;42299;35.160;26.100;2022-07-11T03:02:42;19.77;;;5.15;;
56401;SDS011;42299;35.160;26.100;2022-07-11T03:04:04;7.45;;;3.72;;
56401;SDS011;42299;35.160;26.100;2022-07-11T03:05:26;6.45;;;3.25;;
56401;SDS011;42299;35.160;26.100;2022-07-11T03:06:49;10.30;;;3.75;;
56401;SDS011;42299;35.160;26.100;2022-07-11T03:08:11;7.38;;;3.78;;
56401;SDS011;42299;35.160;26.100;2022-07-11T03:09:35;9.93;;;3.65;;
56401;SDS011;42299;35.160;26.100;2022-07-11T03:10:56;7.38;;;3.50;;
56401;SDS011;42299;35.160;26.100;2022-07-11T03:12:19;7.63;;;3.45;;
56401;SDS011;42299;35.160;26.100;2022-07-11T03:13:40;8.50;;;3.20;;
56401;SDS011;42299;35.160;26.100;2022-07-11T03:15:03;9.65;;;3.42;;
56401;SDS011;42299;35.160;26.100;2022-07-11T03:16:27;8.20;;;3.78;;
56401;SDS011;42299;35.160;26.100;2022-07-11T03:17:48;7.25;;;3.38;;
56401;SDS011;42299;35.160;26.100;2022-07-11T03:19:11;6.78;;;3.53;;
56401;SDS011;42299;35.160;26.100;2022-07-11T03:20:32;7.72;;;3.63;;
56401;SDS011;42299;35.160;26.100;2022-07-11T03:21:55;7.72;;;3.13;;
56401;SDS011;42299;35.160;26.100;2022-07-11T03:23:16;10.00;;;3.63;;
56401;SDS011;42299;35.160;26.100;2022-07-11T03:24:40;6.35;;;3.70;;
56401;SDS011;42299;35.160;26.100;2022-07-11T03:26:01;6.95;;;3.30;;
56401;SDS011;42299;35.160;26.100;2022-07-11T03:27:24;6.20;;;3.38;;
56401;SDS011;42299;35.160;26.100;2022-07-11T03:28:47;15.32;;;3.28;;
56401;SDS011;42299;35.160;26.100;2022-07-11T03:30:09;13.48;;;3.75;;
56401;SDS011;42299;35.160;26.100;2022-07-11T03:31:32;8.95;;;4.50;;
56401;SDS011;42299;35.160;26.100;2022-07-11T03:32:53;10.38;;;3.47;;
56401;SDS011;42299;35.160;26.100;2022-07-11T03:34:16;7.97;;;3.20;;
56401;SDS011;42299;35.160;26.100;2022-07-11T03:35:37;5.75;;;3.03;;
56401;SDS011;42299;35.160;26.100;2022-07-11T03:37:02;7.53;;;3.10;;
56401;SDS011;42299;35.160;26.100;2022-07-11T03:38:25;7.28;;;3.35;;
56401;SDS011;42299;35.160;26.100;2022-07-11T03:39:49;6.28;;;2.97;;
56401;SDS011;42299;35.160;26.100;2022-07-11T03:41:12;8.10;;;3.17;;
56401;SDS011;42299;35.160;26.100;2022-07-11T03:42:33;8.15;;;3.60;;
56401;SDS011;42299;35.160;26.100;2022-07-11T03:43:56;7.07;;;3.05;;
56401;SDS011;42299;35.160;26.100;2022-07-11T03:45:17;6.63;;;3.33;;
56401;SDS011;42299;35.160;26.100;2022-07-11T03:46:40;7.00;;;3.40;;
56401;SDS011;42299;35.160;26.100;2022-07-11T03:48:01;5.03;;;2.78;;
56401;SDS011;42299;35.160;26.100;2022-07-11T03:49:24;4.18;;;2.67;;
56401;SDS011;42299;35.160;26.100;2022-07-11T03:50:46;5.78;;;3.63;;
56401;SDS011;42299;35.160;26.100;2022-07-11T03:53:30;6.15;;;2.75;;
56401;SDS011;42299;35.160;26.100;2022-07-11T03:54:53;4.57;;;2.55;;
56401;SDS011;42299;35.160;26.100;2022-07-11T03:56:16;4.03;;;2.53;;
56401;SDS011;42299;35.160;26.100;2022-07-11T03:57:42;6.32;;;2.47;;
56401;SDS011;42299;35.160;26.100;2022-07-11T03:59:04;9.55;;;3.03;;
56401;SDS011;42299;35.160;26.100;2022-07-11T04:00:27;6.60;;;2.75;;
56401;SDS011;42299;35.160;26.100;2022-07-11T04:01:48;5.93;;;2.72;;
56401;SDS011;42299;35.160;26.100;2022-07-11T04:03:11;4.97;;;2.65;;
56401;SDS011;42299;35.160;26.100;2022-07-11T04:04:32;3.97;;;2.40;;
56401;SDS011;42299;35.160;26.100;2022-07-11T04:05:54;9.38;;;2.50;;
56401;SDS011;42299;35.160;26.100;2022-07-11T04:07:17;5.47;;;2.53;;
56401;SDS011;42299;35.160;26.100;2022-07-11T04:08:38;7.07;;;2.60;;
56401;SDS011;42299;35.160;26.100;2022-07-11T04:10:02;9.20;;;2.97;;
56401;SDS011;42299;35.160;26.100;2022-07-11T04:11:26;6.60;;;2.22;;
56401;SDS011;42299;35.160;26.100;2022-07-11T04:12:49;4.63;;;2.40;;
56401;SDS011;42299;35.160;26.100;2022-07-11T04:14:10;8.00;;;2.83;;
56401;SDS011;42299;35.160;26.100;2022-07-11T04:15:33;4.65;;;2.53;;
56401;SDS011;42299;35.160;26.100;2022-07-11T04:16:55;4.45;;;2.78;;
56401;SDS011;42299;35.160;26.100;2022-07-11T04:18:17;6.15;;;3.50;;
56401;SDS011;42299;35.160;26.100;2022-07-11T04:19:40;3.70;;;2.53;;
56401;SDS011;42299;35.160;26.100;2022-07-11T04:21:03;9.55;;;2.75;;
56401;SDS011;42299;35.160;26.100;2022-07-11T04:22:25;9.57;;;2.65;;
56401;SDS011;42299;35.160;26.100;2022-07-11T04:23:48;4.32;;;2.75;;
56401;SDS011;42299;35.160;26.100;2022-07-11T04:25:12;5.50;;;2.50;;
56401;SDS011;42299;35.160;26.100;2022-07-11T04:26:34;5.72;;;2.50;;
56401;SDS011;42299;35.160;26.100;2022-07-11T04:27:57;8.13;;;2.47;;
56401;SDS011;42299;35.160;26.100;2022-07-11T04:29:18;4.32;;;2.20;;
56401;SDS011;42299;35.160;26.100;2022-07-11T04:30:41;5.05;;;2.88;;
56401;SDS011;42299;35.160;26.100;2022-07-11T04:32:04;8.75;;;3.38;;
56401;SDS011;42299;35.160;26.100;2022-07-11T04:33:26;5.10;;;2.35;;
56401;SDS011;42299;35.160;26.100;2022-07-11T04:34:49;7.60;;;3.40;;
56401;SDS011;42299;35.160;26.100;2022-07-11T04:36:10;5.68;;;2.10;;
56401;SDS011;42299;35.160;26.100;2022-07-11T04:37:33;6.43;;;2.50;;
56401;SDS011;42299;35.160;26.100;2022-07-11T04:38:54;5.15;;;2.47;;
56401;SDS011;42299;35.160;26.100;2022-07-11T04:40:18;6.13;;;2.42;;
56401;SDS011;42299;35.160;26.100;2022-07-11T04:41:41;4.22;;;2.20;;
56401;SDS011;42299;35.160;26.100;2022-07-11T04:43:03;6.60;;;2.40;;
56401;SDS011;42299;35.160;26.100;2022-07-11T04:44:26;4.63;;;2.60;;
56401;SDS011;42299;35.160;26.100;2022-07-11T04:45:48;13.27;;;2.22;;
56401;SDS011;42299;35.160;26.100;2022-07-11T04:47:10;6.95;;;2.85;;
56401;SDS011;42299;35.160;26.100;2022-07-11T04:48:32;5.45;;;2.83;;
56401;SDS011;42299;35.160;26.100;2022-07-11T04:49:54;3.20;;;2.05;;
56401;SDS011;42299;35.160;26.100;2022-07-11T04:51:16;5.35;;;2.60;;
56401;SDS011;42299;35.160;26.100;2022-07-11T04:52:41;4.72;;;2.22;;
56401;SDS011;42299;35.160;26.100;2022-07-11T04:54:02;5.43;;;2.67;;
56401;SDS011;42299;35.160;26.100;2022-07-11T04:55:26;11.57;;;2.67;;
56401;SDS011;42299;35.160;26.100;2022-07-11T04:56:49;5.75;;;2.67;;
56401;SDS011;42299;35.160;26.100;2022-07-11T04:58:11;5.85;;;2.45;;
56401;SDS011;42299;35.160;26.100;2022-07-11T04:59:33;4.35;;;2.47;;
56401;SDS011;42299;35.160;26.100;2022-07-11T05:00:55;4.80;;;1.88;;
56401;SDS011;42299;35.160;26.100;2022-07-11T05:02:17;5.32;;;2.60;;
56401;SDS011;42299;35.160;26.100;2022-07-11T05:03:39;6.05;;;2.90;;
56401;SDS011;42299;35.160;26.100;2022-07-11T05:05:02;6.60;;;2.40;;
56401;SDS011;42299;35.160;26.100;2022-07-11T05:06:24;3.63;;;2.00;;
56401;SDS011;42299;35.160;26.100;2022-07-11T05:07:46;5.75;;;2.30;;
56401;SDS011;42299;35.160;26.100;2022-07-11T05:09:09;4.95;;;2.70;;
56401;SDS011;42299;35.160;26.100;2022-07-11T05:10:33;2.85;;;1.98;;
56401;SDS011;42299;35.160;26.100;2022-07-11T05:11:56;5.47;;;2.05;;
56401;SDS011;42299;35.160;26.100;2022-07-11T05:13:18;9.05;;;2.78;;
56401;SDS011;42299;35.160;26.100;2022-07-11T05:14:40;6.55;;;2.17;;
56401;SDS011;42299;35.160;26.100;2022-07-11T05:16:02;7.00;;;2.47;;
56401;SDS011;42299;35.160;26.100;2022-07-11T05:17:25;5.40;;;2.25;;
56401;SDS011;42299;35.160;26.100;2022-07-11T05:18:46;3.70;;;2.25;;
56401;SDS011;42299;35.160;26.100;2022-07-11T05:20:09;4.25;;;2.40;;
56401;SDS011;42299;35.160;26.100;2022-07-11T05:21:32;5.55;;;2.30;;
56401;SDS011;42299;35.160;26.100;2022-07-11T05:22:53;5.10;;;2.50;;
56401;SDS011;42299;35.160;26.100;2022-07-11T05:24:16;5.68;;;2.00;;
56401;SDS011;42299;35.160;26.100;2022-07-11T05:25:41;4.75;;;2.50;;
56401;SDS011;42299;35.160;26.100;2022-07-11T05:27:04;6.78;;;2.42;;
56401;SDS011;42299;35.160;26.100;2022-07-11T05:28:27;5.82;;;2.42;;
56401;SDS011;42299;35.160;26.100;2022-07-11T05:29:49;4.75;;;2.13;;
56401;SDS011;42299;35.160;26.100;2022-07-11T05:31:10;6.35;;;2.40;;
56401;SDS011;42299;35.160;26.100;2022-07-11T05:32:33;4.38;;;2.25;;
56401;SDS011;42299;35.160;26.100;2022-07-11T05:33:56;5.20;;;2.10;;
56401;SDS011;42299;35.160;26.100;2022-07-11T05:35:17;5.72;;;2.33;;
56401;SDS011;42299;35.160;26.100;2022-07-11T05:36:40;9.15;;;2.40;;
56401;SDS011;42299;35.160;26.100;2022-07-11T05:38:03;6.13;;;2.17;;
56401;SDS011;42299;35.160;26.100;2022-07-11T05:39:26;6.15;;;2.13;;
56401;SDS011;42299;35.160;26.100;2022-07-11T05:40:50;4.78;;;2.38;;
56401;SDS011;42299;35.160;26.100;2022-07-11T05:42:11;6.78;;;2.55;;
56401;SDS011;42299;35.160;26.100;2022-07-11T05:43:34;6.70;;;2.20;;
56401;SDS011;42299;35.160;26.100;2022-07-11T05:44:56;5.68;;;1.95;;
56401;SDS011;42299;35.160;26.100;2022-07-11T05:46:19;4.75;;;2.50;;
56401;SDS011;42299;35.160;26.100;2022-07-11T05:47:41;4.47;;;2.33;;
56401;SDS011;42299;35.160;26.100;2022-07-11T05:49:04;6.45;;;1.92;;
56401;SDS011;42299;35.160;26.100;2022-07-11T05:50:25;6.43;;;2.42;;
56401;SDS011;42299;35.160;26.100;2022-07-11T05:51:48;4.65;;;2.15;;
56401;SDS011;42299;35.160;26.100;2022-07-11T05:53:11;5.13;;;2.33;;
56401;SDS011;42299;35.160;26.100;2022-07-11T05:54:33;6.32;;;2.33;;
56401;SDS011;42299;35.160;26.100;2022-07-11T05:55:57;4.63;;;2.05;;
56401;SDS011;42299;35.160;26.100;2022-07-11T05:57:18;6.43;;;2.55;;
56401;SDS011;42299;35.160;26.100;2022-07-11T05:58:41;5.25;;;2.63;;
56401;SDS011;42299;35.160;26.100;2022-07-11T06:00:02;5.30;;;2.15;;
56401;SDS011;42299;35.160;26.100;2022-07-11T06:01:29;5.55;;;2.30;;
56401;SDS011;42299;35.160;26.100;2022-07-11T06:02:53;4.03;;;2.20;;
56401;SDS011;42299;35.160;26.100;2022-07-11T06:04:15;5.97;;;2.30;;
56401;SDS011;42299;35.160;26.100;2022-07-11T06:05:37;3.40;;;2.03;;
56401;SDS011;42299;35.160;26.100;2022-07-11T06:06:59;4.50;;;2.13;;
56401;SDS011;42299;35.160;26.100;2022-07-11T06:08:22;3.80;;;2.15;;
56401;SDS011;42299;35.160;26.100;2022-07-11T06:10:01;4.28;;;2.30;;
56401;SDS011;42299;35.160;26.100;2022-07-11T06:11:25;7.25;;;2.50;;
56401;SDS011;42299;35.160;26.100;2022-07-11T06:12:48;6.80;;;2.08;;
56401;SDS011;42299;35.160;26.100;2022-07-11T06:14:10;3.00;;;1.90;;
56401;SDS011;42299;35.160;26.100;2022-07-11T06:15:33;5.05;;;2.22;;
56401;SDS011;42299;35.160;26.100;2022-07-11T06:16:54;4.03;;;2.03;;
56401;SDS011;42299;35.160;26.100;2022-07-11T06:18:17;6.65;;;1.92;;
56401;SDS011;42299;35.160;26.100;2022-07-11T06:19:38;3.58;;;1.90;;
56401;SDS011;42299;35.160;26.100;2022-07-11T06:21:01;5.07;;;2.20;;
56401;SDS011;42299;35.160;26.100;2022-07-11T06:22:23;6.85;;;2.30;;
56401;SDS011;42299;35.160;26.100;2022-07-11T06:23:45;4.90;;;2.03;;
56401;SDS011;42299;35.160;26.100;2022-07-11T06:25:08;4.95;;;2.17;;
56401;SDS011;42299;35.160;26.100;2022-07-11T06:26:31;3.45;;;1.90;;
56401;SDS011;42299;35.160;26.100;2022-07-11T06:27:54;6.07;;;2.20;;
56401;SDS011;42299;35.160;26.100;2022-07-11T06:29:16;4.90;;;2.15;;
56401;SDS011;42299;35.160;26.100;2022-07-11T06:30:39;7.25;;;2.15;;
56401;SDS011;42299;35.160;26.100;2022-07-11T06:32:00;4.90;;;2.08;;
56401;SDS011;42299;35.160;26.100;2022-07-11T06:33:23;7.55;;;2.08;;
56401;SDS011;42299;35.160;26.100;2022-07-11T06:34:45;3.15;;;2.03;;
56401;SDS011;42299;35.160;26.100;2022-07-11T06:36:08;3.58;;;2.35;;
56401;SDS011;42299;35.160;26.100;2022-07-11T06:37:34;5.60;;;1.95;;
56401;SDS011;42299;35.160;26.100;2022-07-11T06:38:56;4.85;;;2.00;;
56401;SDS011;42299;35.160;26.100;2022-07-11T06:40:19;5.28;;;2.35;;
56401;SDS011;42299;35.160;26.100;2022-07-11T06:41:41;5.38;;;2.00;;
56401;SDS011;42299;35.160;26.100;2022-07-11T06:43:04;4.07;;;1.88;;
56401;SDS011;42299;35.160;26.100;2022-07-11T06:44:26;10.93;;;2.50;;
56401;SDS011;42299;35.160;26.100;2022-07-11T06:45:49;2.40;;;1.80;;
56401;SDS011;42299;35.160;26.100;2022-07-11T06:47:11;5.55;;;2.25;;
56401;SDS011;42299;35.160;26.100;2022-07-11T06:48:34;7.05;;;2.95;;
56401;SDS011;42299;35.160;26.100;2022-07-11T06:49:56;4.10;;;2.10;;
56401;SDS011;42299;35.160;26.100;2022-07-11T06:51:18;4.72;;;2.13;;
56401;SDS011;42299;35.160;26.100;2022-07-11T06:52:42;5.18;;;2.50;;
56401;SDS011;42299;35.160;26.100;2022-07-11T06:54:03;4.50;;;2.20;;
56401;SDS011;42299;35.160;26.100;2022-07-11T06:55:26;4.70;;;2.25;;
56401;SDS011;42299;35.160;26.100;2022-07-11T06:56:51;5.50;;;2.22;;
56401;SDS011;42299;35.160;26.100;2022-07-11T06:58:13;5.90;;;2.58;;
56401;SDS011;42299;35.160;26.100;2022-07-11T06:59:52;3.78;;;2.17;;
56401;SDS011;42299;35.160;26.100;2022-07-11T07:01:15;5.97;;;2.15;;
56401;SDS011;42299;35.160;26.100;2022-07-11T07:02:37;5.53;;;2.20;;
56401;SDS011;42299;35.160;26.100;2022-07-11T07:04:00;7.75;;;2.20;;
56401;SDS011;42299;35.160;26.100;2022-07-11T07:05:23;7.55;;;2.15;;
56401;SDS011;42299;35.160;26.100;2022-07-11T07:06:46;3.63;;;1.90;;
56401;SDS011;42299;35.160;26.100;2022-07-11T07:08:09;5.47;;;2.60;;
56401;SDS011;42299;35.160;26.100;2022-07-11T07:09:32;4.57;;;2.03;;
56401;SDS011;42299;35.160;26.100;2022-07-11T07:10:55;5.70;;;2.00;;
56401;SDS011;42299;35.160;26.100;2022-07-11T07:12:20;4.50;;;2.00;;
56401;SDS011;42299;35.160;26.100;2022-07-11T07:13:43;3.45;;;2.13;;
56401;SDS011;42299;35.160;26.100;2022-07-11T07:15:06;4.78;;;2.20;;
56401;SDS011;42299;35.160;26.100;2022-07-11T07:16:29;6.55;;;2.40;;
56401;SDS011;42299;35.160;26.100;2022-07-11T07:17:52;5.60;;;2.20;;
56401;SDS011;42299;35.160;26.100;2022-07-11T07:19:15;4.60;;;2.20;;
56401;SDS011;42299;35.160;26.100;2022-07-11T07:20:37;5.50;;;2.17;;
56401;SDS011;42299;35.160;26.100;2022-07-11T07:22:00;5.35;;;2.10;;
56401;SDS011;42299;35.160;26.100;2022-07-11T07:23:23;5.35;;;2.28;;
56401;SDS011;42299;35.160;26.100;2022-07-11T07:27:33;4.07;;;1.90;;
56401;SDS011;42299;35.160;26.100;2022-07-11T07:28:55;3.67;;;1.98;;
56401;SDS011;42299;35.160;26.100;2022-07-11T07:30:18;4.47;;;1.88;;
56401;SDS011;42299;35.160;26.100;2022-07-11T07:31:41;4.43;;;1.85;;
56401;SDS011;42299;35.160;26.100;2022-07-11T07:33:04;5.40;;;2.20;;
56401;SDS011;42299;35.160;26.100;2022-07-11T07:34:26;4.55;;;2.13;;
56401;SDS011;42299;35.160;26.100;2022-07-11T07:35:48;3.63;;;1.98;;
56401;SDS011;42299;35.160;26.100;2022-07-11T07:37:11;5.47;;;2.33;;
56401;SDS011;42299;35.160;26.100;2022-07-11T07:38:35;5.10;;;2.00;;
56401;SDS011;42299;35.160;26.100;2022-07-11T07:39:57;4.32;;;1.92;;
56401;SDS011;42299;35.160;26.100;2022-07-11T07:41:20;6.95;;;1.90;;
56401;SDS011;42299;35.160;26.100;2022-07-11T07:42:43;5.05;;;2.60;;
56401;SDS011;42299;35.160;26.100;2022-07-11T07:44:06;4.13;;;2.08;;
56401;SDS011;42299;35.160;26.100;2022-07-11T07:45:29;6.05;;;2.42;;
56401;SDS011;42299;35.160;26.100;2022-07-11T07:46:52;3.25;;;1.70;;
56401;SDS011;42299;35.160;26.100;2022-07-11T07:48:13;7.05;;;2.00;;
56401;SDS011;42299;35.160;26.100;2022-07-11T07:49:36;6.15;;;2.35;;
56401;SDS011;42299;35.160;26.100;2022-07-11T07:50:58;5.63;;;2.25;;
56401;SDS011;42299;35.160;26.100;2022-07-11T07:52:20;5.45;;;2.30;;
56401;SDS011;42299;35.160;26.100;2022-07-11T07:53:43;5.47;;;2.08;;
56401;SDS011;42299;35.160;26.100;2022-07-11T07:55:06;7.72;;;2.35;;
56401;SDS011;42299;35.160;26.100;2022-07-11T07:56:29;4.15;;;2.20;;
56401;SDS011;42299;35.160;26.100;2022-07-11T07:57:53;6.47;;;2.45;;
56401;SDS011;42299;35.160;26.100;2022-07-11T07:59:16;5.07;;;2.30;;
56401;SDS011;42299;35.160;26.100;2022-07-11T08:00:38;7.22;;;1.98;;
56401;SDS011;42299;35.160;26.100;2022-07-11T08:02:18;6.90;;;2.35;;
56401;SDS011;42299;35.160;26.100;2022-07-11T08:03:39;4.13;;;1.90;;
56401;SDS011;42299;35.160;26.100;2022-07-11T08:05:02;7.20;;;2.40;;
56401;SDS011;42299;35.160;26.100;2022-07-11T08:06:25;6.20;;;2.00;;
56401;SDS011;42299;35.160;26.100;2022-07-11T08:07:47;5.07;;;2.15;;
56401;SDS011;42299;35.160;26.100;2022-07-11T08:09:10;5.78;;;2.10;;
56401;SDS011;42299;35.160;26.100;2022-07-11T08:10:32;4.72;;;1.92;;
56401;SDS011;42299;35.160;26.100;2022-07-11T08:11:56;5.63;;;2.17;;
56401;SDS011;42299;35.160;26.100;2022-07-11T08:13:20;5.93;;;1.95;;
56401;SDS011;42299;35.160;26.100;2022-07-11T08:14:41;5.85;;;2.08;;
56401;SDS011;42299;35.160;26.100;2022-07-11T08:16:03;4.85;;;2.17;;
56401;SDS011;42299;35.160;26.100;2022-07-11T08:17:27;5.43;;;2.35;;
56401;SDS011;42299;35.160;26.100;2022-07-11T08:18:50;7.25;;;2.50;;